YBBNYBHM

Guest
Details From YBBN - Brisbane Intl
To YBHM - Hamilton I.
Flight Number -
Tags Generated
Created
Modified
Stats Distance 481 nm / 891 km
Max Altitude 0 ft / 0 m
Waypoints 4
Social Downloads 0
Likes 0
Share VATSIM

Download

Looking for another format? Having issues loading an existing format? Contact us
Advertisement - Login to hide

Notes

Generated

Route

YBBN GLAWA BHMSJ YBHM

ID Type Via Altitude Latitude Longitude Leg Dist Tot Dist Heading (true) Name
O YBBN APT - 0 ft / 0 m -27.40786˚ 153.10379˚ - 0 nm - -
GLAWA FIX - 0 ft / 0 m -23.79669˚ 150.96607˚ 245 nm 245 nm 331° / 332° -
BHMSJ FIX - 0 ft / 0 m -20.58442˚ 149.07635˚ 219 nm 465 nm 331° / 332° -
O YBHM APT - 0 ft / 0 m -20.35114˚ 148.94655˚ 15 nm 481 nm 332° / 332° -

Altitude Profile

Advertisement - Login to hide

Weather


0- 5 10 15 20 25 30 35+ Temperature / ° C

Clouds and Precipitation
Forecast for 2017-12-12 12:00 UTC. Updated an hour ago

Ground ~20,000 ft ~40,000 ft Winds

YBBN

Details ICAO YBBN (BNE)
Name Brisbane Intl
Region Australia
Timezone Australia/Brisbane (UTC+10.0)
Stats Elevation 12 ft / 4 m (AMSL)
Location -27.375714° 153.127710°
Runways 2
Magnetic Variation 10.985° E

METAR

YBBN 121200Z 17005KT 9999 FEW020 22/18 Q1017 NOSIG

Decode

TAF

TAF YBBN 121125Z 1212/1318 15010KT 9999 FEW020 FM121400 20007KT 9999 FEW020 SCT035 FM122200 14010KT 9999 FEW030 FM130100 11012KT 9999 FEW030 FM130800 10007KT 9999 FEW025 FM131300 20006KT 9999 FEW025

Decode

Departure Runways

ID Width Length Bearing (true) Bearing (mag) Surface Threshold Offset Overrun Length
01 148 ft / 45 m 11,805 ft / 3,598 m 26.93° 15.95° Asphalt 197 ft / 60 m 0 ft / 0 m
14 98 ft / 30 m 5,787 ft / 1,764 m 145.66° 134.68° Asphalt 197 ft / 60 m 0 ft / 0 m
19 148 ft / 45 m 11,805 ft / 3,598 m 206.92° 195.94° Asphalt 0 ft / 0 m 0 ft / 0 m
32 98 ft / 30 m 5,787 ft / 1,764 m 325.66° 314.68° Asphalt 197 ft / 60 m 0 ft / 0 m

YBHM

Details ICAO YBHM (HTI)
Name Hamilton I.
Region Australia
Timezone Australia/Lindeman (UTC+10.0)
Stats Elevation 14 ft / 4 m (AMSL)
Location -20.357481° 148.951639°
Runways 1
Magnetic Variation 8.158° E

METAR

YBHM 121200Z AUTO 13023KT 9999 // BKN025 BKN029 25/21 Q1013

Decode

TAF

TAF YBHM 121106Z 1212/1224 13020KT 9999 -SHRA SCT025

Decode

Destination Runways

ID Width Length Bearing (true) Bearing (mag) Surface Threshold Offset Overrun Length
14 148 ft / 45 m 5,792 ft / 1,765 m 143.04° 134.88° Asphalt 0 ft / 0 m 0 ft / 0 m
32 148 ft / 45 m 5,792 ft / 1,765 m 323.03° 314.87° Asphalt 0 ft / 0 m 0 ft / 0 m

Popular Alternatives